createdAt,value
2018-11-03T00:00:38.497Z,94.54
2018-11-03T00:01:48.076Z,94.84
2018-11-03T00:02:58.232Z,95.03
2018-11-03T00:04:08.090Z,94.93
2018-11-03T00:05:17.950Z,94.64
2018-11-03T00:06:27.799Z,94.64
2018-11-03T00:07:37.669Z,94.54
2018-11-03T00:08:47.539Z,94.64
2018-11-03T00:09:57.670Z,94.5
2018-11-03T00:11:07.526Z,94.59
2018-11-03T00:12:17.450Z,94.64
2018-11-03T00:13:27.545Z,94.69
2018-11-03T00:14:37.681Z,94.59
2018-11-03T00:15:47.526Z,94.79
2018-11-03T00:16:57.096Z,94.69
2018-11-03T00:18:06.667Z,94.69
2018-11-03T00:19:16.526Z,94.59
2018-11-03T00:20:28.898Z,94.79
2018-11-03T00:21:39.396Z,94.59
2018-11-03T00:22:50.038Z,94.79
2018-11-03T00:23:59.346Z,94.59
2018-11-03T00:25:09.212Z,94.79
2018-11-03T00:26:18.794Z,94.59
2018-11-03T00:27:28.652Z,94.4
2018-11-03T00:28:38.506Z,94.35
2018-11-03T00:29:48.696Z,94.84
2018-11-03T00:30:58.315Z,94.45
2018-11-03T00:32:08.439Z,94.26
2018-11-03T00:33:18.021Z,94.93
2018-11-03T00:34:27.861Z,94.26
2018-11-03T00:35:37.960Z,94.26
2018-11-03T00:36:47.801Z,94.26
2018-11-03T00:37:57.382Z,94.35
2018-11-03T00:39:06.693Z,94.26
2018-11-03T00:40:16.531Z,94.45
2018-11-03T00:41:26.520Z,94.17
2018-11-03T00:42:36.629Z,93.88
2018-11-03T00:43:46.771Z,94.26
2018-11-03T00:44:56.865Z,94.45
2018-11-03T00:46:07.039Z,94.07
2018-11-03T00:47:17.582Z,94.45
2018-11-03T00:48:27.144Z,94.07
2018-11-03T00:49:37.036Z,94.07
2018-11-03T00:50:46.595Z,94.45
2018-11-03T00:51:56.427Z,94.45
2018-11-03T00:53:07.475Z,94.26
2018-11-03T00:54:17.307Z,94.35
2018-11-03T00:55:27.204Z,94.45
2018-11-03T00:56:37.354Z,94.07
2018-11-03T00:57:47.460Z,94.17
2018-11-03T00:58:57.306Z,94.17
2018-11-03T01:00:07.158Z,94.35
2018-11-03T01:01:16.983Z,94.17
2018-11-03T01:02:27.087Z,94.17
2018-11-03T01:03:37.220Z,94.35
2018-11-03T01:04:47.081Z,94.07
2018-11-03T01:05:57.212Z,94.17
2018-11-03T01:07:07.044Z,94.17
2018-11-03T01:08:17.359Z,94.17
2018-11-03T01:09:27.766Z,94.17
2018-11-03T01:10:38.409Z,94.35
2018-11-03T01:11:48.261Z,94.17
2018-11-03T01:12:58.147Z,94.17
2018-11-03T01:14:09.577Z,94.17
2018-11-03T01:15:18.887Z,94.17
2018-11-03T01:16:28.727Z,94.26
2018-11-03T01:17:38.567Z,94.26
2018-11-03T01:18:48.705Z,94.55
2018-11-03T01:19:58.528Z,94.35
2018-11-03T01:21:08.661Z,94.21
2018-11-03T01:22:18.763Z,94.02
2018-11-03T01:23:28.947Z,94.17
2018-11-03T01:24:39.437Z,94.17
2018-11-03T01:25:49.547Z,94.12
2018-11-03T01:26:59.383Z,94.07
2018-11-03T01:28:09.481Z,94.17
2018-11-03T01:29:19.314Z,94.12
2018-11-03T01:30:29.739Z,94.31
2018-11-03T01:31:39.910Z,94.35
2018-11-03T01:32:50.687Z,94.12
2018-11-03T01:34:00.525Z,94.12
2018-11-03T01:35:10.640Z,94.12
2018-11-03T01:36:20.459Z,94.31
2018-11-03T01:37:30.288Z,94.12
2018-11-03T01:38:39.846Z,94.21
2018-11-03T01:39:49.714Z,94.02
2018-11-03T01:40:59.280Z,94.21
2018-11-03T01:42:09.171Z,94.21
2018-11-03T01:43:18.734Z,94.31
2018-11-03T01:44:28.580Z,94.31
2018-11-03T01:45:38.418Z,94.4
2018-11-03T01:46:48.252Z,94.5
2018-11-03T01:47:58.106Z,94.4
2018-11-03T01:49:10.886Z,94.31
2018-11-03T01:50:20.461Z,94.4
2018-11-03T01:51:30.313Z,94.21
2018-11-03T01:52:40.685Z,94.4
2018-11-03T01:53:51.239Z,94.21
2018-11-03T01:55:02.105Z,94.31
2018-11-03T01:56:11.737Z,94.31
2018-11-03T01:57:21.834Z,94.5
2018-11-03T01:58:31.664Z,94.12
2018-11-03T01:59:41.539Z,94.31
2018-11-03T02:00:51.637Z,94.4
2018-11-03T02:02:01.833Z,94.4
2018-11-03T02:03:11.945Z,94.4
2018-11-03T02:04:21.760Z,94.31
2018-11-03T02:05:31.876Z,94.31
2018-11-03T02:06:41.458Z,94.31
2018-11-03T02:07:51.580Z,94.31
2018-11-03T02:09:01.701Z,94.12
2018-11-03T02:10:11.610Z,94.12
2018-11-03T02:11:21.699Z,94.12
2018-11-03T02:12:31.547Z,94.12
2018-11-03T02:13:41.383Z,94.02
2018-11-03T02:14:51.858Z,94.31
2018-11-03T02:16:01.911Z,94.21
2018-11-03T02:17:12.388Z,94.31
2018-11-03T02:18:21.953Z,94.12
2018-11-03T02:19:32.073Z,94.12
2018-11-03T02:20:42.193Z,94.12
2018-11-03T02:21:52.027Z,94.21
2018-11-03T02:23:02.204Z,94.4
2018-11-03T02:24:12.099Z,94.31
2018-11-03T02:25:21.649Z,94.31
2018-11-03T02:26:31.748Z,94.5
2018-11-03T02:27:41.682Z,94.21
2018-11-03T02:28:51.270Z,94.21
2018-11-03T02:30:02.830Z,94.4
2018-11-03T02:31:12.655Z,94.4
2018-11-03T02:32:22.495Z,94.21
2018-11-03T02:33:32.622Z,94.31
2018-11-03T02:34:42.709Z,94.4
2018-11-03T02:35:52.826Z,94.31
2018-11-03T02:37:03.072Z,94.69
2018-11-03T02:38:13.612Z,94.4
2018-11-03T02:39:24.264Z,94.4
2018-11-03T02:40:34.416Z,94.21
2018-11-03T02:41:44.255Z,94.31
2018-11-03T02:42:54.060Z,94.21
2018-11-03T02:44:04.142Z,94.31
2018-11-03T02:45:14.285Z,94.31
2018-11-03T02:46:24.392Z,94.31
2018-11-03T02:47:34.294Z,94.21
2018-11-03T02:48:44.388Z,94.31
2018-11-03T02:49:54.502Z,94.5
2018-11-03T02:51:04.641Z,94.12
2018-11-03T02:52:14.750Z,94.21
2018-11-03T02:53:24.597Z,94.31
2018-11-03T02:54:34.445Z,94.31
2018-11-03T02:55:43.729Z,94.31
2018-11-03T02:56:53.386Z,94.4
2018-11-03T02:58:03.249Z,94.4
2018-11-03T02:59:13.380Z,94.21
2018-11-03T03:00:24.083Z,94.31
2018-11-03T03:01:34.492Z,94.31
2018-11-03T03:02:44.848Z,94.31
2018-11-03T03:34:23.902Z,88.29
2018-11-03T03:35:34.012Z,88.29
2018-11-03T03:36:43.558Z,89.34
2018-11-03T03:37:53.153Z,90.2
2018-11-03T03:39:02.713Z,90.2
2018-11-03T03:40:12.925Z,91.35
2018-11-03T03:41:22.796Z,91.93
2018-11-03T03:42:32.382Z,91.93
2018-11-03T03:43:42.827Z,92.5
2018-11-03T03:44:53.047Z,93.07
2018-11-03T03:46:04.339Z,92.54
2018-11-03T03:47:14.461Z,93.12
2018-11-03T03:48:24.311Z,93.79
2018-11-03T03:49:34.442Z,93.88
2018-11-03T03:50:44.292Z,93.6
2018-11-03T03:51:54.128Z,93.79
2018-11-03T03:53:04.241Z,93.84
2018-11-03T03:54:14.352Z,94.02
2018-11-03T03:55:24.188Z,94.12
2018-11-03T03:56:34.285Z,94.21
2018-11-03T03:57:44.422Z,93.93
2018-11-03T03:58:53.993Z,94.21
2018-11-03T04:00:03.849Z,94.07
2018-11-03T04:01:13.748Z,94.17
2018-11-03T04:02:23.849Z,94.26
2018-11-03T04:03:34.066Z,93.69
2018-11-03T04:04:43.907Z,93.98
2018-11-03T04:05:54.018Z,93.69
2018-11-03T04:07:04.229Z,93.79
2018-11-03T04:08:14.224Z,93.79
2018-11-03T04:09:24.234Z,93.83
2018-11-03T04:10:34.227Z,93.83
2018-11-03T04:11:43.799Z,94.45
2018-11-03T04:12:53.641Z,94.36
2018-11-03T04:14:03.755Z,94.4
2018-11-03T04:15:13.376Z,94.31
2018-11-03T04:16:23.549Z,94.5
2018-11-03T04:17:33.666Z,94.6
2018-11-03T04:18:43.777Z,93.93
2018-11-03T04:19:53.330Z,94.4
2018-11-03T04:21:03.267Z,94.21
2018-11-03T04:22:13.366Z,94.31
2018-11-03T04:23:23.464Z,94.4
2018-11-03T04:24:33.563Z,94.21
2018-11-03T04:25:43.382Z,94.31
2018-11-03T04:26:53.199Z,94.69
2018-11-03T04:28:02.772Z,94.21
2018-11-03T04:29:12.868Z,94.69
2018-11-03T04:30:22.747Z,94.5
2018-11-03T04:31:32.315Z,93.93
2018-11-03T04:32:42.454Z,94.21
2018-11-03T04:33:52.614Z,94.31
2018-11-03T04:35:02.732Z,94.17
2018-11-03T04:36:13.242Z,94.31
2018-11-03T04:37:23.378Z,94.5
2018-11-03T04:38:33.593Z,94.31
2018-11-03T04:39:43.700Z,94.4
2018-11-03T04:40:53.840Z,94.5
2018-11-03T04:42:03.952Z,94.21
2018-11-03T04:43:14.052Z,94.21
2018-11-03T04:44:24.152Z,94.31
2018-11-03T04:45:34.185Z,94.31
2018-11-03T04:46:44.565Z,94.31
2018-11-03T04:47:54.705Z,94.31
2018-11-03T04:49:06.117Z,94.4
2018-11-03T04:50:16.265Z,94.4
2018-11-03T04:51:26.375Z,94.4
2018-11-03T04:52:36.275Z,94.31
2018-11-03T04:53:46.101Z,94.69
2018-11-03T04:54:55.663Z,94.26
2018-11-03T04:56:06.128Z,94.26
2018-11-03T04:57:16.448Z,94.21
2018-11-03T04:58:26.607Z,94.17
2018-11-03T04:59:36.455Z,94.36
2018-11-03T05:00:46.256Z,94.31
2018-11-03T05:01:56.088Z,94.21
2018-11-03T05:03:05.920Z,94.4
2018-11-03T05:04:16.063Z,94.31
2018-11-03T05:05:26.201Z,94.69
2018-11-03T05:06:36.071Z,94.31
2018-11-03T05:07:46.211Z,94.26
2018-11-03T05:08:55.760Z,94.4
2018-11-03T05:10:08.280Z,94.31
2018-11-03T05:11:18.398Z,94.21
2018-11-03T05:12:27.977Z,94.12
2018-11-03T05:13:37.910Z,94.69
2018-11-03T05:14:47.905Z,94.4
2018-11-03T05:15:57.494Z,94.4
2018-11-03T05:17:07.061Z,94.4
2018-11-03T05:18:16.642Z,94.12
2018-11-03T05:19:26.970Z,94.4
2018-11-03T05:20:36.862Z,94.4
2018-11-03T05:21:46.868Z,94.31
2018-11-03T05:22:56.808Z,94.31
2018-11-03T05:24:06.639Z,94.31
2018-11-03T05:25:16.770Z,94.26
2018-11-03T05:26:26.618Z,94.26
2018-11-03T05:27:36.479Z,94.36
2018-11-03T05:28:46.314Z,94.4
2018-11-03T05:29:56.427Z,94.4
2018-11-03T05:31:06.669Z,94.31
2018-11-03T05:32:16.983Z,94.31
2018-11-03T05:33:27.112Z,94.31
2018-11-03T05:34:36.959Z,94.4
2018-11-03T05:35:47.052Z,94.69
2018-11-03T05:36:56.878Z,94.4
2018-11-03T05:38:06.719Z,94.31
2018-11-03T05:39:16.812Z,94.31
2018-11-03T05:40:26.369Z,94.36
2018-11-03T05:41:36.763Z,94.26
2018-11-03T05:42:46.051Z,94.4
2018-11-03T05:43:55.793Z,94.17
2018-11-03T05:45:05.910Z,94.17
2018-11-03T05:46:15.503Z,94.26
2018-11-03T05:47:25.506Z,94.36
2018-11-03T05:48:35.346Z,94.36
2018-11-03T05:49:45.457Z,94.26
2018-11-03T05:50:55.014Z,94.36
2018-11-03T05:52:04.882Z,94.36
2018-11-03T05:53:15.032Z,94.26
2018-11-03T05:54:24.885Z,94.36
2018-11-03T05:55:34.721Z,94.26
2018-11-03T05:56:44.030Z,94.26
2018-11-03T05:57:53.616Z,94.26
2018-11-03T05:59:04.110Z,94.26
2018-11-03T06:00:14.543Z,94.17
2018-11-03T06:01:24.689Z,94.36
2018-11-03T06:02:34.576Z,94.17
2018-11-03T06:03:44.409Z,94.17
2018-11-03T06:04:54.668Z,94.26
2018-11-03T06:06:04.553Z,94.65
2018-11-03T06:07:14.920Z,94.6
2018-11-03T06:08:24.773Z,94.21
2018-11-03T06:09:34.351Z,93.74
2018-11-03T06:10:44.471Z,93.84
2018-11-03T06:11:54.295Z,93.69
2018-11-03T06:13:03.927Z,93.69
2018-11-03T06:14:14.030Z,94.12
2018-11-03T06:15:23.991Z,94.12
2018-11-03T06:16:33.732Z,94.07
2018-11-03T06:17:43.567Z,93.59
2018-11-03T06:18:53.116Z,93.59
2018-11-03T06:20:04.308Z,93.98
2018-11-03T06:21:14.412Z,94.07
2018-11-03T06:22:24.283Z,94.07
2018-11-03T06:23:34.867Z,94.02
2018-11-03T06:24:44.771Z,93.59
2018-11-03T06:25:54.881Z,93.88
2018-11-03T06:27:04.962Z,93.69
2018-11-03T06:28:15.859Z,93.88
2018-11-03T06:29:26.483Z,93.74
2018-11-03T06:30:36.579Z,93.69
2018-11-03T06:31:46.718Z,93.55
2018-11-03T06:32:56.904Z,93.98
2018-11-03T06:34:06.464Z,94.17
2018-11-03T06:35:16.709Z,93.69
2018-11-03T06:36:27.355Z,93.69
2018-11-03T06:37:37.186Z,93.69
2018-11-03T06:38:47.505Z,93.98
2018-11-03T06:39:57.231Z,93.88
2018-11-03T06:41:07.070Z,93.79
2018-11-03T06:42:17.172Z,93.88
2018-11-03T06:43:26.747Z,93.88
2018-11-03T06:44:36.556Z,93.79
2018-11-03T06:45:46.705Z,93.79
2018-11-03T06:46:56.529Z,93.69
2018-11-03T06:48:06.359Z,93.79
2018-11-03T06:49:16.789Z,93.79
2018-11-03T06:50:27.397Z,93.79
2018-11-03T06:51:38.260Z,93.88
2018-11-03T06:52:48.067Z,93.69
2018-11-03T06:53:58.204Z,93.59
2018-11-03T06:55:07.774Z,93.59
2018-11-03T06:56:17.615Z,93.79
2018-11-03T06:57:27.717Z,93.79
2018-11-03T06:58:37.604Z,93.69
2018-11-03T06:59:47.458Z,93.88
2018-11-03T07:00:57.015Z,93.79
2018-11-03T07:02:06.853Z,93.74
2018-11-03T07:03:16.952Z,93.93
2018-11-03T07:04:26.778Z,93.69
2018-11-03T07:05:36.360Z,93.79
2018-11-03T07:06:46.186Z,94.07
2018-11-03T07:07:56.310Z,93.98
2018-11-03T07:09:06.150Z,94.07
2018-11-03T07:10:16.272Z,94.07
2018-11-03T07:11:26.358Z,93.69
2018-11-03T07:12:37.631Z,93.88
2018-11-03T07:13:49.351Z,94.07
2018-11-03T07:14:59.615Z,93.98
2018-11-03T07:16:11.092Z,93.98
2018-11-03T07:17:21.218Z,94.07
2018-11-03T07:18:31.682Z,93.59
2018-11-03T07:19:41.881Z,93.5
2018-11-03T07:20:51.732Z,93.69
2018-11-03T07:22:01.871Z,93.69
2018-11-03T07:23:11.488Z,93.69
2018-11-03T07:24:20.782Z,93.69
2018-11-03T07:25:30.918Z,93.88
2018-11-03T07:26:40.516Z,93.83
2018-11-03T07:27:50.384Z,93.64
2018-11-03T07:29:00.682Z,93.64
2018-11-03T07:30:10.514Z,93.16
2018-11-03T07:31:20.339Z,93.54
2018-11-03T07:32:29.943Z,93.45
2018-11-03T07:33:39.789Z,93.45
2018-11-03T07:34:49.652Z,93.16
2018-11-03T07:35:59.540Z,93.16
2018-11-03T07:37:10.041Z,93.26
2018-11-03T07:38:20.807Z,93.74
2018-11-03T07:39:31.679Z,93.26
2018-11-03T07:40:41.875Z,93.26
2018-11-03T07:41:51.863Z,93.26
2018-11-03T07:43:01.984Z,93.35
2018-11-03T07:44:11.811Z,93.35
2018-11-03T07:45:21.966Z,93.93
2018-11-03T07:46:32.092Z,93.74
2018-11-03T07:47:42.215Z,93.93
2018-11-03T07:48:52.105Z,93.93
2018-11-03T07:50:03.066Z,93.64
2018-11-03T07:51:13.159Z,93.02
2018-11-03T07:52:23.237Z,93.45
2018-11-03T07:53:33.445Z,93.21
2018-11-03T07:54:43.551Z,93.54
2018-11-03T07:55:54.025Z,92.73
2018-11-03T07:57:04.176Z,93.02
2018-11-03T07:58:14.305Z,93.4
2018-11-03T07:59:24.178Z,93.11
2018-11-03T08:00:34.342Z,93.11
2018-11-03T08:01:45.398Z,93.21
2018-11-03T08:02:55.566Z,92.35
2018-11-03T08:04:07.121Z,92.73
2018-11-03T08:05:17.227Z,92.97
2018-11-03T08:06:27.340Z,92.49
2018-11-03T08:07:37.460Z,92.2
2018-11-03T08:08:47.401Z,93.16
2018-11-03T08:09:57.443Z,92.82
2018-11-03T08:11:07.553Z,92.3
2018-11-03T08:12:17.141Z,92.63
2018-11-03T08:13:27.029Z,92.34
2018-11-03T08:14:36.896Z,92.63
2018-11-03T08:15:47.287Z,92.24
2018-11-03T08:16:57.706Z,92.44
2018-11-03T08:18:07.880Z,92.24
2018-11-03T08:19:17.728Z,92.34
2018-11-03T08:20:27.557Z,92.24
2018-11-03T08:21:37.404Z,92.34
2018-11-03T08:22:47.532Z,92.54
2018-11-03T08:23:58.048Z,92.54
2018-11-03T08:25:08.733Z,92.72
2018-11-03T08:26:18.525Z,92.54
2018-11-03T08:27:28.768Z,93.11
2018-11-03T08:28:38.903Z,92.44
2018-11-03T08:29:49.012Z,93.01
2018-11-03T08:30:58.621Z,92.82
2018-11-03T08:32:08.451Z,92.91
2018-11-03T08:33:18.290Z,92.54
2018-11-03T08:34:28.374Z,92.72
2018-11-03T08:35:38.208Z,92.82
2018-11-03T08:36:48.049Z,93.01
2018-11-03T08:37:57.863Z,92.63
2018-11-03T08:39:07.815Z,92.77
2018-11-03T08:40:17.919Z,92.1
2018-11-03T08:41:28.045Z,92.29
2018-11-03T08:42:37.657Z,92.48
2018-11-03T08:43:47.762Z,92.48
2018-11-03T08:44:57.906Z,92.33
2018-11-03T08:46:08.988Z,92.68
2018-11-03T08:47:19.912Z,92.53
2018-11-03T08:48:30.633Z,92.53
2018-11-03T08:49:41.071Z,92.72
2018-11-03T08:50:50.903Z,92.82
2018-11-03T08:52:01.369Z,92.82
2018-11-03T08:53:11.490Z,92.82
2018-11-03T08:54:21.633Z,92.82
2018-11-03T08:55:31.481Z,92.77
2018-11-03T08:56:41.614Z,92.77
2018-11-03T08:57:51.701Z,92.86
2018-11-03T08:59:01.829Z,92.96
2018-11-03T09:00:12.165Z,92.77
2018-11-03T09:01:23.059Z,92.77
2018-11-03T09:02:32.628Z,92.86
2018-11-03T09:03:42.469Z,92.67
2018-11-03T09:04:52.620Z,92.19
2018-11-03T09:06:02.813Z,92.38
2018-11-03T09:07:13.531Z,92
2018-11-03T09:08:24.295Z,92.29
2018-11-03T09:09:34.597Z,92.38
2018-11-03T09:10:44.533Z,92.48
2018-11-03T09:11:54.141Z,92.52
2018-11-03T09:13:05.590Z,92.43
2018-11-03T09:14:15.485Z,92.43
2018-11-03T09:15:25.765Z,92.33
2018-11-03T09:16:35.370Z,91.95
2018-11-03T09:17:45.570Z,91.66
2018-11-03T09:18:55.419Z,92.05
2018-11-03T09:20:05.282Z,91.66
2018-11-03T09:21:15.379Z,91.66
2018-11-03T09:22:25.301Z,91.66
2018-11-03T09:23:35.459Z,91.85
2018-11-03T09:24:45.035Z,91.85
2018-11-03T09:25:55.278Z,91.71
2018-11-03T09:27:05.432Z,91.71
2018-11-03T09:28:15.393Z,91.99
2018-11-03T09:29:26.042Z,91.8
2018-11-03T09:30:36.811Z,92.09
2018-11-03T09:31:47.090Z,91.99
2018-11-03T09:32:57.254Z,91.71
2018-11-03T09:34:07.113Z,91.71
2018-11-03T09:35:16.977Z,91.71
2018-11-03T09:36:26.812Z,92.09
2018-11-03T09:37:36.387Z,91.99
2018-11-03T09:38:46.890Z,91.9
2018-11-03T09:39:56.977Z,92.09
2018-11-03T09:41:06.875Z,91.71
2018-11-03T09:42:16.468Z,91.71
2018-11-03T09:43:26.762Z,91.56
2018-11-03T09:44:37.359Z,91.8
2018-11-03T09:45:47.500Z,91.99
2018-11-03T09:46:57.086Z,91.61
2018-11-03T09:48:08.721Z,91.52
2018-11-03T09:49:18.291Z,91.56
2018-11-03T09:50:29.220Z,91.17
2018-11-03T09:51:39.906Z,91.17
2018-11-03T09:52:49.942Z,90.98
2018-11-03T09:54:00.120Z,90.98
2018-11-03T09:55:10.035Z,91.75
2018-11-03T09:56:20.243Z,90.98
2018-11-03T09:57:30.701Z,91.46
2018-11-03T09:58:40.946Z,91.75
2018-11-03T09:59:51.040Z,91.08
2018-11-03T10:01:01.175Z,91.46
2018-11-03T10:02:10.737Z,91.27
2018-11-03T10:03:20.571Z,91.08
2018-11-03T10:04:30.453Z,91.36
2018-11-03T10:05:40.312Z,91.27
2018-11-03T10:06:50.493Z,91.36
2018-11-03T10:08:00.048Z,91.56
2018-11-03T10:09:09.221Z,91.17
2018-11-03T10:10:19.484Z,90.98
2018-11-03T10:11:29.303Z,91.8
2018-11-03T10:12:39.932Z,91.75
2018-11-03T10:13:50.136Z,90.98
2018-11-03T10:15:00.414Z,91.75
2018-11-03T10:16:10.776Z,91.27
2018-11-03T10:17:20.879Z,91.36
2018-11-03T10:18:31.016Z,90.98
2018-11-03T10:19:40.640Z,91.36
2018-11-03T10:20:50.762Z,91.36
2018-11-03T10:22:00.976Z,91.66
2018-11-03T10:23:10.755Z,91.46
2018-11-03T10:24:20.873Z,91.22
2018-11-03T10:25:30.706Z,91.66
2018-11-03T10:26:40.599Z,91.17
2018-11-03T10:27:50.822Z,91.36
2018-11-03T10:29:01.321Z,91.08
2018-11-03T10:30:11.201Z,91.36
2018-11-03T10:31:21.325Z,92.13
2018-11-03T10:32:30.909Z,91.9
2018-11-03T10:33:41.211Z,91.8
2018-11-03T10:34:51.890Z,91.9
2018-11-03T10:36:02.593Z,91.71
2018-11-03T10:37:13.164Z,91.99
2018-11-03T10:38:23.004Z,91.9
2018-11-03T10:39:33.175Z,92.09
2018-11-03T10:40:43.283Z,92.09
2018-11-03T10:41:53.425Z,91.99
2018-11-03T10:43:03.898Z,92.19
2018-11-03T10:44:13.739Z,92.09
2018-11-03T10:45:23.358Z,92.09
2018-11-03T10:46:33.622Z,91.71
2018-11-03T10:47:43.542Z,92.24
2018-11-03T10:48:53.397Z,92.91
2018-11-03T10:50:04.211Z,92.62
2018-11-03T10:51:14.328Z,92.62
2018-11-03T10:52:24.546Z,92.62
2018-11-03T10:53:34.542Z,92.52
2018-11-03T10:54:45.179Z,92.57
2018-11-03T10:55:55.315Z,93.34
2018-11-03T10:57:06.174Z,92.77
2018-11-03T10:58:16.452Z,92.77
2018-11-03T10:59:26.618Z,92.77
2018-11-03T11:00:36.760Z,92.77
2018-11-03T11:01:46.437Z,92.57
2018-11-03T11:02:55.995Z,92.38
2018-11-03T11:04:06.176Z,92.19
2018-11-03T11:05:15.835Z,91.75
2018-11-03T11:06:25.680Z,92.05
2018-11-03T11:07:35.826Z,91.95
2018-11-03T11:08:45.686Z,91.85
2018-11-03T11:09:55.591Z,92.14
2018-11-03T11:11:09.040Z,92
2018-11-03T11:12:18.964Z,92.77
2018-11-03T11:13:28.839Z,92.67
2018-11-03T11:14:39.083Z,92.86
2018-11-03T11:15:48.498Z,92.19
2018-11-03T11:16:59.717Z,92.1
2018-11-03T11:18:10.442Z,92.24
2018-11-03T11:19:20.815Z,91.95
2018-11-03T11:20:31.666Z,91.95
2018-11-03T11:21:41.792Z,91.75
2018-11-03T11:22:51.374Z,91.95
2018-11-03T11:24:01.696Z,91.85
2018-11-03T11:25:11.785Z,92.77
2018-11-03T11:26:21.713Z,92.38
2018-11-03T11:27:31.560Z,92.67
2018-11-03T11:28:41.420Z,92.91
2018-11-03T11:29:51.009Z,92.82
2018-11-03T11:31:01.964Z,92.72
2018-11-03T11:32:11.648Z,92.19
2018-11-03T11:33:20.945Z,92.29
2018-11-03T11:34:30.531Z,92.38
2018-11-03T11:35:40.417Z,91.52
2018-11-03T11:36:50.557Z,92.1
2018-11-03T11:38:00.660Z,92.29
2018-11-03T11:39:11.128Z,92.19
2018-11-03T11:40:22.045Z,92.38
2018-11-03T11:41:32.237Z,92.19
2018-11-03T11:42:42.087Z,92.29
2018-11-03T11:43:51.700Z,92.38
2018-11-03T11:45:02.210Z,91.61
2018-11-03T11:46:12.315Z,92.1
2018-11-03T11:47:21.884Z,91.52
2018-11-03T11:48:31.744Z,91.75
2018-11-03T11:49:41.954Z,91.66
2018-11-03T11:50:52.115Z,91.47
2018-11-03T11:52:02.338Z,91.22
2018-11-03T11:53:12.185Z,91.52
2018-11-03T11:54:21.749Z,91.32
2018-11-03T11:55:31.864Z,91.32
2018-11-03T11:56:41.974Z,91.32
2018-11-03T11:57:51.803Z,91.71
2018-11-03T11:59:02.012Z,91.22
2018-11-03T12:00:11.863Z,91.71
2018-11-03T12:01:21.462Z,91.8
2018-11-03T12:02:31.545Z,91.71
2018-11-03T12:03:42.042Z,91.99
2018-11-03T12:04:52.545Z,92.09
2018-11-03T12:06:03.547Z,91.99
2018-11-03T12:07:13.363Z,92.47
2018-11-03T12:08:23.247Z,92.47
2018-11-03T12:09:32.554Z,91.8
2018-11-03T12:10:42.142Z,91.99
2018-11-03T12:11:51.745Z,91.99
2018-11-03T12:13:01.903Z,91.9
2018-11-03T12:14:11.764Z,91.9
2018-11-03T12:15:21.336Z,91.61
2018-11-03T12:16:31.259Z,91.99
2018-11-03T12:17:41.409Z,91.71
2018-11-03T12:18:51.251Z,91.71
2018-11-03T12:20:01.359Z,92.09
2018-11-03T12:21:11.232Z,92.09
2018-11-03T12:22:21.114Z,91.9
2018-11-03T12:23:31.288Z,92.09
2018-11-03T12:24:41.135Z,91.71
2018-11-03T12:25:51.170Z,91.99
2018-11-03T12:27:02.448Z,92.38
2018-11-03T12:28:13.414Z,92.38
2018-11-03T12:29:24.016Z,92.29
2018-11-03T12:30:34.177Z,92.29
2018-11-03T12:31:44.394Z,91.99
2018-11-03T12:32:53.993Z,92.09
2018-11-03T12:34:03.870Z,92.29
2018-11-03T12:35:13.753Z,92.29
2018-11-03T12:36:23.482Z,92.38
2018-11-03T12:37:33.610Z,92.29
2018-11-03T12:38:43.760Z,91.99
2018-11-03T12:39:53.349Z,92.09
2018-11-03T12:41:03.776Z,92.29
2018-11-03T12:42:14.142Z,92.29
2018-11-03T12:43:24.262Z,92.38
2018-11-03T12:44:34.416Z,92.47
2018-11-03T12:45:44.363Z,92.47
2018-11-03T12:46:54.601Z,92.29
2018-11-03T12:48:04.547Z,92.47
2018-11-03T12:49:14.709Z,92.38
2018-11-03T12:50:25.118Z,92.38
2018-11-03T12:51:35.740Z,92.14
2018-11-03T12:52:45.836Z,92.05
2018-11-03T12:53:55.459Z,92.05
2018-11-03T12:55:05.058Z,92.72
2018-11-03T12:56:14.912Z,92.62
2018-11-03T12:57:25.054Z,92.81
2018-11-03T12:58:34.406Z,93.01
2018-11-03T12:59:44.062Z,93.34
2018-11-03T13:00:53.669Z,93.54
2018-11-03T13:02:04.232Z,92.86
2018-11-03T13:03:13.939Z,93.59
2018-11-03T13:04:24.443Z,93.68
2018-11-03T13:05:34.340Z,92.82
2018-11-03T13:06:44.233Z,93.2
2018-11-03T13:07:54.494Z,93.49
2018-11-03T13:09:04.614Z,92.91
2018-11-03T13:10:14.886Z,92.91
2018-11-03T13:11:24.749Z,92.91
2018-11-03T13:12:34.569Z,93.05
2018-11-03T13:13:44.668Z,92.48
2018-11-03T13:14:54.774Z,92.86
2018-11-03T13:16:04.347Z,92.38
2018-11-03T13:17:14.266Z,92.77
2018-11-03T13:18:24.352Z,92.48
2018-11-03T13:19:34.471Z,92.57
2018-11-03T13:20:44.595Z,92.57
2018-11-03T13:21:54.394Z,92.77
2018-11-03T13:23:04.257Z,92.77
2018-11-03T13:24:14.067Z,92.82
2018-11-03T13:25:23.897Z,92.72
2018-11-03T13:26:33.976Z,93.39
2018-11-03T13:27:44.070Z,93.3
2018-11-03T13:28:54.165Z,93.39
2018-11-03T13:30:03.990Z,93.2
2018-11-03T13:31:13.852Z,93.39
2018-11-03T13:32:23.685Z,93.39
2018-11-03T13:33:33.502Z,93.49
2018-11-03T13:34:43.766Z,93.39
2018-11-03T13:35:54.099Z,93.2
2018-11-03T13:37:03.917Z,93.25
2018-11-03T13:38:13.736Z,93.25
2018-11-03T13:39:23.870Z,93.1
2018-11-03T13:40:33.951Z,93.25
2018-11-03T13:41:44.237Z,93.3
2018-11-03T13:42:54.038Z,93.15
2018-11-03T13:44:04.133Z,93.15
2018-11-03T13:45:13.480Z,93.3
2018-11-03T13:46:23.341Z,93.2
2018-11-03T13:47:33.514Z,93.15
2018-11-03T13:48:43.086Z,93.15
2018-11-03T13:49:53.193Z,93.06
2018-11-03T13:51:03.281Z,93.06
2018-11-03T13:52:13.121Z,93.06
2018-11-03T13:53:23.222Z,93.35
2018-11-03T13:54:33.038Z,93.25
2018-11-03T13:55:42.886Z,93.35
2018-11-03T13:56:52.729Z,93.73
2018-11-03T13:58:03.592Z,93.54
2018-11-03T13:59:13.415Z,93.39
2018-11-03T14:00:22.981Z,92.77
2018-11-03T14:01:33.064Z,93.49
2018-11-03T14:02:43.153Z,92.72
2018-11-03T14:03:53.305Z,92.72
2018-11-03T14:05:04.536Z,93.3
2018-11-03T14:06:14.354Z,93.2
2018-11-03T14:07:24.427Z,93.3
2018-11-03T14:08:34.518Z,93.49
2018-11-03T14:09:44.585Z,93.49
2018-11-03T14:10:54.458Z,93.49
2018-11-03T14:12:05.534Z,93.1
2018-11-03T14:13:15.628Z,92.72
2018-11-03T14:14:25.726Z,92.91
2018-11-03T14:15:35.609Z,92.72
2018-11-03T14:16:45.892Z,92.72
2018-11-03T14:17:55.763Z,93.39
2018-11-03T14:19:05.635Z,93.68
2018-11-03T14:20:15.488Z,93.1
2018-11-03T14:21:25.604Z,93.39
2018-11-03T14:22:35.187Z,93.1
2018-11-03T14:23:45.313Z,93.25
2018-11-03T14:24:55.167Z,93.3
2018-11-03T14:26:05.001Z,93.25
2018-11-03T14:27:15.088Z,93.25
2018-11-03T14:28:24.673Z,93.25
2018-11-03T14:29:34.553Z,93.15
2018-11-03T14:30:44.710Z,93.35
2018-11-03T14:31:54.318Z,93.73
2018-11-03T14:33:03.963Z,93.54
2018-11-03T14:34:13.740Z,93.73
2018-11-03T14:35:23.848Z,93.44
2018-11-03T14:36:33.665Z,93.21
2018-11-03T14:37:43.738Z,93.92
2018-11-03T14:38:53.829Z,94.07
2018-11-03T14:40:03.652Z,94.17
2018-11-03T14:41:13.758Z,94.17
2018-11-03T14:42:23.095Z,94.07
2018-11-03T14:43:32.147Z,94.07
2018-11-03T14:44:41.898Z,94.26
2018-11-03T14:45:51.967Z,94.26
2018-11-03T14:47:02.193Z,94.07
2018-11-03T14:48:12.031Z,93.97
2018-11-03T14:49:21.940Z,93.97
2018-11-03T14:50:31.769Z,93.97
2018-11-03T14:51:41.331Z,93.97
2018-11-03T14:52:50.884Z,93.88
2018-11-03T14:54:00.980Z,94.07
2018-11-03T14:55:10.807Z,93.97
2018-11-03T14:56:20.772Z,94.07
2018-11-03T14:57:30.411Z,93.97
2018-11-03T14:58:40.254Z,93.97
2018-11-03T14:59:50.364Z,93.97
2018-11-03T15:01:00.289Z,93.97
2018-11-03T15:02:10.435Z,93.88
2018-11-03T15:03:20.558Z,93.78
2018-11-03T15:04:30.388Z,94.12
2018-11-03T15:05:40.221Z,93.88
2018-11-03T15:06:50.047Z,94.17
2018-11-03T15:08:02.255Z,93.83
2018-11-03T15:09:12.331Z,94.07
2018-11-03T15:10:22.405Z,93.78
2018-11-03T15:11:32.228Z,93.83
2018-11-03T15:12:42.051Z,94.12
2018-11-03T15:13:52.222Z,94.12
2018-11-03T15:15:02.578Z,94.12
2018-11-03T15:16:12.988Z,94.31
2018-11-03T15:17:22.813Z,94.31
2018-11-03T15:18:32.642Z,94.02
2018-11-03T15:19:42.580Z,93.73
2018-11-03T15:20:52.710Z,94.12
2018-11-03T15:22:02.539Z,94.21
2018-11-03T15:23:12.635Z,94.21
2018-11-03T15:24:22.730Z,94.31
2018-11-03T15:25:33.934Z,94.31
2018-11-03T15:26:43.775Z,94.31
2018-11-03T15:27:53.330Z,94.31
2018-11-03T15:29:05.368Z,94.31
2018-11-03T15:30:14.969Z,94.21
2018-11-03T15:31:24.788Z,94.31
2018-11-03T15:32:34.916Z,94.5
2018-11-03T15:33:45.008Z,94.59
2018-11-03T15:34:55.221Z,94.31
2018-11-03T15:36:06.905Z,94.4